sensor_id;sensor_type;location;lat;lon;timestamp;pressure;altitude;pressure_sealevel;temperature;humidity
66524;BME280;53350;52.210;5.160;2024-02-26T00:00:00;100076.38;;;7.44;76.61
66524;BME280;53350;52.210;5.160;2024-02-26T00:02:28;100073.81;;;7.43;76.93
66524;BME280;53350;52.210;5.160;2024-02-26T00:04:55;100080.66;;;7.44;76.43
66524;BME280;53350;52.210;5.160;2024-02-26T00:07:21;100079.72;;;7.49;76.19
66524;BME280;53350;52.210;5.160;2024-02-26T00:09:48;100077.16;;;7.49;76.06
66524;BME280;53350;52.210;5.160;2024-02-26T00:12:14;100072.84;;;7.52;75.86
66524;BME280;53350;52.210;5.160;2024-02-26T00:14:41;100065.22;;;7.47;76.49
66524;BME280;53350;52.210;5.160;2024-02-26T00:17:07;100073.81;;;7.43;76.55
66524;BME280;53350;52.210;5.160;2024-02-26T00:19:36;100076.38;;;7.44;76.67
66524;BME280;53350;52.210;5.160;2024-02-26T00:22:02;100083.22;;;7.44;76.72
66524;BME280;53350;52.210;5.160;2024-02-26T00:24:29;100080.66;;;7.42;77.28
66524;BME280;53350;52.210;5.160;2024-02-26T00:26:55;100079.81;;;7.43;76.65
66524;BME280;53350;52.210;5.160;2024-02-26T00:29:22;100087.63;;;7.31;77.54
66524;BME280;53350;52.210;5.160;2024-02-26T00:31:48;100090.94;;;7.39;76.94
66524;BME280;53350;52.210;5.160;2024-02-26T00:34:15;100099.50;;;7.37;77.24
66524;BME280;53350;52.210;5.160;2024-02-26T00:36:43;100089.25;;;7.37;77.04
66524;BME280;53350;52.210;5.160;2024-02-26T00:39:11;100073.19;;;7.22;76.92
66524;BME280;53350;52.210;5.160;2024-02-26T00:41:38;100097.97;;;7.23;77.49
66524;BME280;53350;52.210;5.160;2024-02-26T00:44:05;100102.25;;;7.23;77.29
66524;BME280;53350;52.210;5.160;2024-02-26T00:46:31;100099.69;;;7.23;77.46
66524;BME280;53350;52.210;5.160;2024-02-26T00:48:58;100107.38;;;7.23;77.27
66524;BME280;53350;52.210;5.160;2024-02-26T00:51:25;100098.81;;;7.22;77.15
66524;BME280;53350;52.210;5.160;2024-02-26T00:53:54;100098.03;;;7.16;77.14
66524;BME280;53350;52.210;5.160;2024-02-26T00:56:21;100102.25;;;7.23;77.04
66524;BME280;53350;52.210;5.160;2024-02-26T00:58:47;100092.00;;;7.20;77.10
66524;BME280;53350;52.210;5.160;2024-02-26T01:01:13;100097.97;;;7.22;77.05
66524;BME280;53350;52.210;5.160;2024-02-26T01:03:40;100097.13;;;7.20;77.02
66524;BME280;53350;52.210;5.160;2024-02-26T01:06:06;100098.06;;;7.12;77.13
66524;BME280;53350;52.210;5.160;2024-02-26T01:08:34;100107.47;;;7.12;77.35
66524;BME280;53350;52.210;5.160;2024-02-26T01:11:02;100103.16;;;7.17;76.98
66524;BME280;53350;52.210;5.160;2024-02-26T01:13:29;100100.63;;;7.11;76.86
66524;BME280;53350;52.210;5.160;2024-02-26T01:15:55;100103.22;;;7.09;77.25
66524;BME280;53350;52.210;5.160;2024-02-26T01:18:22;100102.28;;;7.17;76.96
66524;BME280;53350;52.210;5.160;2024-02-26T01:20:48;100095.50;;;7.16;76.99
66524;BME280;53350;52.210;5.160;2024-02-26T01:23:15;100102.31;;;7.15;76.56
66524;BME280;53350;52.210;5.160;2024-02-26T01:25:41;100098.09;;;7.08;77.57
66524;BME280;53350;52.210;5.160;2024-02-26T01:28:09;100106.63;;;7.10;77.22
66524;BME280;53350;52.210;5.160;2024-02-26T01:30:36;100105.81;;;7.06;77.20
66524;BME280;53350;52.210;5.160;2024-02-26T01:33:02;100102.47;;;7.00;77.52
66524;BME280;53350;52.210;5.160;2024-02-26T01:35:29;100106.66;;;7.08;77.07
66524;BME280;53350;52.210;5.160;2024-02-26T01:37:56;100099.91;;;7.00;77.61
66524;BME280;53350;52.210;5.160;2024-02-26T01:40:26;100105.03;;;6.96;77.48
66524;BME280;53350;52.210;5.160;2024-02-26T01:42:53;100096.53;;;6.94;77.84
66524;BME280;53350;52.210;5.160;2024-02-26T01:45:21;100104.19;;;6.97;77.49
66524;BME280;53350;52.210;5.160;2024-02-26T01:47:50;100104.19;;;6.96;77.41
66524;BME280;53350;52.210;5.160;2024-02-26T01:50:17;100107.72;;;6.84;78.09
66524;BME280;53350;52.210;5.160;2024-02-26T01:52:44;100105.97;;;6.91;77.66
66524;BME280;53350;52.210;5.160;2024-02-26T01:55:12;100106.81;;;6.91;77.46
66524;BME280;53350;52.210;5.160;2024-02-26T01:57:39;100097.41;;;6.90;77.85
66524;BME280;53350;52.210;5.160;2024-02-26T02:00:07;100105.19;;;6.81;77.84
66524;BME280;53350;52.210;5.160;2024-02-26T02:02:36;100106.94;;;6.76;78.27
66524;BME280;53350;52.210;5.160;2024-02-26T02:05:04;100105.19;;;6.81;78.04
66524;BME280;53350;52.210;5.160;2024-02-26T02:07:31;100111.16;;;6.80;78.29
66524;BME280;53350;52.210;5.160;2024-02-26T02:09:58;100106.03;;;6.80;77.73
66524;BME280;53350;52.210;5.160;2024-02-26T02:12:25;100110.34;;;6.78;78.42
66524;BME280;53350;52.210;5.160;2024-02-26T02:14:51;100122.22;;;6.87;77.46
66524;BME280;53350;52.210;5.160;2024-02-26T02:17:19;100117.97;;;6.83;77.63
66524;BME280;53350;52.210;5.160;2024-02-26T02:19:46;100118.00;;;6.79;77.85
66524;BME280;53350;52.210;5.160;2024-02-26T02:22:14;100123.09;;;6.81;78.05
66524;BME280;53350;52.210;5.160;2024-02-26T02:24:41;100127.34;;;6.81;78.13
66524;BME280;53350;52.210;5.160;2024-02-26T02:27:07;100126.47;;;6.85;77.62
66524;BME280;53350;52.210;5.160;2024-02-26T02:29:34;100119.72;;;6.77;78.15
66524;BME280;53350;52.210;5.160;2024-02-26T02:32:01;100120.63;;;6.70;78.41
66524;BME280;53350;52.210;5.160;2024-02-26T02:34:28;100130.81;;;6.79;77.57
66524;BME280;53350;52.210;5.160;2024-02-26T02:36:55;100138.50;;;6.73;77.98
66524;BME280;53350;52.210;5.160;2024-02-26T02:39:22;100129.13;;;6.74;78.22
66524;BME280;53350;52.210;5.160;2024-02-26T02:41:49;100134.19;;;6.82;77.71
66524;BME280;53350;52.210;5.160;2024-02-26T02:44:15;100136.78;;;6.78;77.62
66524;BME280;53350;52.210;5.160;2024-02-26T02:46:43;100131.63;;;6.82;77.07
66524;BME280;53350;52.210;5.160;2024-02-26T02:49:09;100132.50;;;6.79;77.52
66524;BME280;53350;52.210;5.160;2024-02-26T02:51:36;100133.34;;;6.81;77.19
66524;BME280;53350;52.210;5.160;2024-02-26T02:54:03;100136.75;;;6.80;77.47
66524;BME280;53350;52.210;5.160;2024-02-26T02:56:30;100138.47;;;6.81;77.33
66524;BME280;53350;52.210;5.160;2024-02-26T02:58:57;100141.00;;;6.84;76.77
66524;BME280;53350;52.210;5.160;2024-02-26T03:01:23;100140.16;;;6.85;76.92
66524;BME280;53350;52.210;5.160;2024-02-26T03:03:50;100148.66;;;6.86;77.08
66524;BME280;53350;52.210;5.160;2024-02-26T03:06:16;100152.09;;;6.82;76.79
66524;BME280;53350;52.210;5.160;2024-02-26T03:08:43;100147.81;;;6.82;77.22
66524;BME280;53350;52.210;5.160;2024-02-26T03:11:13;100169.22;;;6.76;77.19
66524;BME280;53350;52.210;5.160;2024-02-26T03:13:41;100176.88;;;6.81;76.96
66524;BME280;53350;52.210;5.160;2024-02-26T03:16:08;100187.06;;;6.84;77.18
66524;BME280;53350;52.210;5.160;2024-02-26T03:18:34;100176.81;;;6.86;76.54
66524;BME280;53350;52.210;5.160;2024-02-26T03:21:01;100186.25;;;6.84;76.67
66524;BME280;53350;52.210;5.160;2024-02-26T03:23:27;100174.34;;;6.76;77.30
66524;BME280;53350;52.210;5.160;2024-02-26T03:25:55;100182.91;;;6.66;77.57
66524;BME280;53350;52.210;5.160;2024-02-26T03:28:21;100186.31;;;6.71;77.24
66524;BME280;53350;52.210;5.160;2024-02-26T03:30:49;100188.81;;;6.77;77.03
66524;BME280;53350;52.210;5.160;2024-02-26T03:33:15;100179.44;;;6.79;77.23
66524;BME280;53350;52.210;5.160;2024-02-26T03:35:42;100183.78;;;6.67;77.58
66524;BME280;53350;52.210;5.160;2024-02-26T03:38:09;100188.88;;;6.70;77.66
66524;BME280;53350;52.210;5.160;2024-02-26T03:40:35;100184.56;;;6.73;77.52
66524;BME280;53350;52.210;5.160;2024-02-26T03:43:02;100181.16;;;6.76;77.70
66524;BME280;53350;52.210;5.160;2024-02-26T03:45:30;100187.94;;;6.82;77.11
66524;BME280;53350;52.210;5.160;2024-02-26T03:47:57;100196.50;;;6.76;77.45
66524;BME280;53350;52.210;5.160;2024-02-26T03:50:24;100211.03;;;6.77;77.46
66524;BME280;53350;52.210;5.160;2024-02-26T03:52:50;100200.78;;;6.75;77.41
66524;BME280;53350;52.210;5.160;2024-02-26T03:55:17;100209.28;;;6.79;77.12
66524;BME280;53350;52.210;5.160;2024-02-26T03:57:46;100199.94;;;6.78;76.96
66524;BME280;53350;52.210;5.160;2024-02-26T04:00:13;100216.06;;;6.91;77.07
66524;BME280;53350;52.210;5.160;2024-02-26T04:02:40;100219.47;;;6.88;76.99
66524;BME280;53350;52.210;5.160;2024-02-26T04:05:10;100219.47;;;6.88;76.90
66524;BME280;53350;52.210;5.160;2024-02-26T04:07:37;100217.75;;;6.89;76.94
66524;BME280;53350;52.210;5.160;2024-02-26T04:10:08;100225.44;;;6.87;77.36
66524;BME280;53350;52.210;5.160;2024-02-26T04:12:35;100222.88;;;6.90;77.05
66524;BME280;53350;52.210;5.160;2024-02-26T04:15:02;100225.38;;;6.95;76.80
66524;BME280;53350;52.210;5.160;2024-02-26T04:17:28;100232.22;;;6.94;76.51
66524;BME280;53350;52.210;5.160;2024-02-26T04:19:55;100221.13;;;6.95;76.49
66524;BME280;53350;52.210;5.160;2024-02-26T04:22:23;100228.78;;;6.99;76.75
66524;BME280;53350;52.210;5.160;2024-02-26T04:24:49;100237.28;;;7.01;76.33
66524;BME280;53350;52.210;5.160;2024-02-26T04:27:16;100234.78;;;6.94;76.86
66524;BME280;53350;52.210;5.160;2024-02-26T04:29:42;100234.75;;;6.97;76.60
66524;BME280;53350;52.210;5.160;2024-02-26T04:32:09;100247.56;;;6.97;76.45
66524;BME280;53350;52.210;5.160;2024-02-26T04:34:35;100245.88;;;6.93;76.57
66524;BME280;53350;52.210;5.160;2024-02-26T04:37:02;100251.06;;;6.87;76.82
66524;BME280;53350;52.210;5.160;2024-02-26T04:39:30;100239.97;;;6.82;77.26
66524;BME280;53350;52.210;5.160;2024-02-26T04:41:57;100253.59;;;6.89;76.84
66524;BME280;53350;52.210;5.160;2024-02-26T04:44:23;100256.13;;;6.93;76.93
66524;BME280;53350;52.210;5.160;2024-02-26T04:46:49;100250.22;;;6.85;76.85
66524;BME280;53350;52.210;5.160;2024-02-26T04:49:16;100249.38;;;6.80;76.80
66524;BME280;53350;52.210;5.160;2024-02-26T04:51:42;100258.81;;;6.78;77.23
66524;BME280;53350;52.210;5.160;2024-02-26T04:54:09;100261.41;;;6.66;77.62
66524;BME280;53350;52.210;5.160;2024-02-26T04:56:37;100252.03;;;6.69;77.51
66524;BME280;53350;52.210;5.160;2024-02-26T04:59:03;100255.44;;;6.68;77.66
66524;BME280;53350;52.210;5.160;2024-02-26T05:01:30;100260.56;;;6.68;77.78
66524;BME280;53350;52.210;5.160;2024-02-26T05:03:56;100269.16;;;6.55;78.56
66524;BME280;53350;52.210;5.160;2024-02-26T05:06:23;100258.88;;;6.64;78.19
66524;BME280;53350;52.210;5.160;2024-02-26T05:08:49;100259.72;;;6.61;77.99
66524;BME280;53350;52.210;5.160;2024-02-26T05:11:15;100258.06;;;6.59;78.25
66524;BME280;53350;52.210;5.160;2024-02-26T05:13:44;100264.88;;;6.55;78.94
66524;BME280;53350;52.210;5.160;2024-02-26T05:16:11;100259.81;;;6.46;79.43
66524;BME280;53350;52.210;5.160;2024-02-26T05:18:38;100270.88;;;6.48;79.44
66524;BME280;53350;52.210;5.160;2024-02-26T05:21:04;100264.94;;;6.48;79.24
66524;BME280;53350;52.210;5.160;2024-02-26T05:23:31;100271.72;;;6.49;79.30
66524;BME280;53350;52.210;5.160;2024-02-26T05:25:57;100267.50;;;6.48;79.27
66524;BME280;53350;52.210;5.160;2024-02-26T05:28:24;100277.69;;;6.54;78.85
66524;BME280;53350;52.210;5.160;2024-02-26T05:30:51;100282.84;;;6.46;79.60
66524;BME280;53350;52.210;5.160;2024-02-26T05:33:18;100287.94;;;6.54;79.52
66524;BME280;53350;52.210;5.160;2024-02-26T05:35:44;100288.75;;;6.59;78.74
66524;BME280;53350;52.210;5.160;2024-02-26T05:38:11;100287.06;;;6.55;78.98
66524;BME280;53350;52.210;5.160;2024-02-26T05:40:37;100285.38;;;6.54;79.18
66524;BME280;53350;52.210;5.160;2024-02-26T05:43:04;100301.53;;;6.56;79.46
66524;BME280;53350;52.210;5.160;2024-02-26T05:45:31;100281.97;;;6.47;80.12
66524;BME280;53350;52.210;5.160;2024-02-26T05:47:59;100291.31;;;6.56;79.21
66524;BME280;53350;52.210;5.160;2024-02-26T05:50:26;100302.41;;;6.50;80.21
66524;BME280;53350;52.210;5.160;2024-02-26T05:52:52;100290.53;;;6.48;80.12
66524;BME280;53350;52.210;5.160;2024-02-26T05:55:18;100302.41;;;6.50;80.28
66524;BME280;53350;52.210;5.160;2024-02-26T05:57:45;100306.72;;;6.47;80.41
66524;BME280;53350;52.210;5.160;2024-02-26T06:00:12;100316.06;;;6.57;80.05
66524;BME280;53350;52.210;5.160;2024-02-26T06:02:39;100317.78;;;6.56;79.61
66524;BME280;53350;52.210;5.160;2024-02-26T06:05:07;100310.13;;;6.53;80.37
66524;BME280;53350;52.210;5.160;2024-02-26T06:07:33;100306.69;;;6.59;79.80
66524;BME280;53350;52.210;5.160;2024-02-26T06:10:00;100317.75;;;6.61;79.83
66524;BME280;53350;52.210;5.160;2024-02-26T06:12:27;100327.97;;;6.63;79.46
66524;BME280;53350;52.210;5.160;2024-02-26T06:14:56;100329.72;;;6.59;80.21
66524;BME280;53350;52.210;5.160;2024-02-26T06:17:22;100334.78;;;6.65;79.84
66524;BME280;53350;52.210;5.160;2024-02-26T06:19:48;100344.25;;;6.46;80.75
66524;BME280;53350;52.210;5.160;2024-02-26T06:22:16;100343.34;;;6.58;80.23
66524;BME280;53350;52.210;5.160;2024-02-26T06:24:43;100346.75;;;6.60;80.15
66524;BME280;53350;52.210;5.160;2024-02-26T06:27:09;100347.59;;;6.56;80.43
66524;BME280;53350;52.210;5.160;2024-02-26T06:29:35;100342.50;;;6.59;80.08
66524;BME280;53350;52.210;5.160;2024-02-26T06:32:02;100350.13;;;6.70;79.88
66524;BME280;53350;52.210;5.160;2024-02-26T06:34:29;100371.47;;;6.63;80.08
66524;BME280;53350;52.210;5.160;2024-02-26T06:36:55;100361.22;;;6.69;79.78
66524;BME280;53350;52.210;5.160;2024-02-26T06:39:23;100361.22;;;6.66;79.89
66524;BME280;53350;52.210;5.160;2024-02-26T06:41:50;100358.69;;;6.63;80.42
66524;BME280;53350;52.210;5.160;2024-02-26T06:44:19;100357.84;;;6.60;80.66
66524;BME280;53350;52.210;5.160;2024-02-26T06:46:45;100369.84;;;6.44;81.12
66524;BME280;53350;52.210;5.160;2024-02-26T06:49:12;100372.38;;;6.48;81.25
66524;BME280;53350;52.210;5.160;2024-02-26T06:51:38;100376.66;;;6.39;81.70
66524;BME280;53350;52.210;5.160;2024-02-26T06:54:05;100380.91;;;6.45;81.58
66524;BME280;53350;52.210;5.160;2024-02-26T06:56:33;100381.75;;;6.49;81.24
66524;BME280;53350;52.210;5.160;2024-02-26T06:58:59;100380.03;;;6.52;80.92
66524;BME280;53350;52.210;5.160;2024-02-26T07:01:25;100385.16;;;6.51;81.19
66524;BME280;53350;52.210;5.160;2024-02-26T07:03:52;100390.28;;;6.54;81.01
66524;BME280;53350;52.210;5.160;2024-02-26T07:06:18;100396.22;;;6.54;80.98
66524;BME280;53350;52.210;5.160;2024-02-26T07:08:45;100397.97;;;6.51;81.42
66524;BME280;53350;52.210;5.160;2024-02-26T07:11:11;100412.44;;;6.50;81.42
66524;BME280;53350;52.210;5.160;2024-02-26T07:13:39;100409.91;;;6.52;81.23
66524;BME280;53350;52.210;5.160;2024-02-26T07:16:08;100403.06;;;6.51;81.56
66524;BME280;53350;52.210;5.160;2024-02-26T07:18:35;100409.91;;;6.41;82.03
66524;BME280;53350;52.210;5.160;2024-02-26T07:21:02;100415.06;;;6.33;82.76
66524;BME280;53350;52.210;5.160;2024-02-26T07:23:28;100420.16;;;6.41;82.04
66524;BME280;53350;52.210;5.160;2024-02-26T07:25:55;100415.88;;;6.38;81.90
66524;BME280;53350;52.210;5.160;2024-02-26T07:28:21;100417.59;;;6.36;82.04
66524;BME280;53350;52.210;5.160;2024-02-26T07:30:49;100432.97;;;6.32;82.32
66524;BME280;53350;52.210;5.160;2024-02-26T07:33:16;100436.34;;;6.40;81.74
66524;BME280;53350;52.210;5.160;2024-02-26T07:35:42;100444.03;;;6.44;81.58
66524;BME280;53350;52.210;5.160;2024-02-26T07:38:09;100433.78;;;6.37;81.44
66524;BME280;53350;52.210;5.160;2024-02-26T07:40:35;100434.66;;;6.23;82.42
66524;BME280;53350;52.210;5.160;2024-02-26T07:43:02;100433.84;;;6.24;82.55
66524;BME280;53350;52.210;5.160;2024-02-26T07:45:29;100434.69;;;6.17;82.56
66524;BME280;53350;52.210;5.160;2024-02-26T07:47:56;100443.19;;;6.19;82.70
66524;BME280;53350;52.210;5.160;2024-02-26T07:50:23;100443.19;;;6.19;82.70
66524;BME280;53350;52.210;5.160;2024-02-26T07:52:49;100454.28;;;6.15;83.21
66524;BME280;53350;52.210;5.160;2024-02-26T07:55:16;100451.75;;;6.00;83.66
66524;BME280;53350;52.210;5.160;2024-02-26T07:57:43;100456.00;;;6.15;82.76
66524;BME280;53350;52.210;5.160;2024-02-26T08:00:10;100458.53;;;6.18;82.49
66524;BME280;53350;52.210;5.160;2024-02-26T08:02:37;100463.66;;;6.24;82.01
66524;BME280;53350;52.210;5.160;2024-02-26T08:05:06;100472.19;;;6.24;82.29
66524;BME280;53350;52.210;5.160;2024-02-26T08:07:33;100481.56;;;6.33;82.13
66524;BME280;53350;52.210;5.160;2024-02-26T08:09:59;100486.69;;;6.30;81.78
66524;BME280;53350;52.210;5.160;2024-02-26T08:12:25;100485.81;;;6.26;82.19
66524;BME280;53350;52.210;5.160;2024-02-26T08:14:52;100488.38;;;6.26;82.49
66524;BME280;53350;52.210;5.160;2024-02-26T08:17:18;100487.53;;;6.31;81.53
66524;BME280;53350;52.210;5.160;2024-02-26T08:19:45;100488.38;;;6.31;81.47
66524;BME280;53350;52.210;5.160;2024-02-26T08:22:13;100480.69;;;6.33;81.24
66524;BME280;53350;52.210;5.160;2024-02-26T08:24:41;100484.97;;;6.37;81.31
66524;BME280;53350;52.210;5.160;2024-02-26T08:27:07;100493.47;;;6.31;81.65
66524;BME280;53350;52.210;5.160;2024-02-26T08:29:37;100502.03;;;6.35;81.42
66524;BME280;53350;52.210;5.160;2024-02-26T08:32:04;100507.16;;;6.29;81.74
66524;BME280;53350;52.210;5.160;2024-02-26T08:34:32;100498.59;;;6.34;81.14
66524;BME280;53350;52.210;5.160;2024-02-26T08:36:58;100510.56;;;6.24;81.47
66524;BME280;53350;52.210;5.160;2024-02-26T08:39:26;100496.91;;;6.32;80.92
66524;BME280;53350;52.210;5.160;2024-02-26T08:41:53;100513.09;;;6.34;81.15
66524;BME280;53350;52.210;5.160;2024-02-26T08:44:19;100533.56;;;6.37;80.71
66524;BME280;53350;52.210;5.160;2024-02-26T08:46:46;100519.06;;;6.34;80.55
66524;BME280;53350;52.210;5.160;2024-02-26T08:49:12;100512.25;;;6.32;80.87
66524;BME280;53350;52.210;5.160;2024-02-26T08:51:41;100540.41;;;6.32;80.83
66524;BME280;53350;52.210;5.160;2024-02-26T08:54:07;100525.03;;;6.36;80.41
66524;BME280;53350;52.210;5.160;2024-02-26T08:56:35;100530.16;;;6.41;80.00
66524;BME280;53350;52.210;5.160;2024-02-26T08:59:02;100532.69;;;6.49;79.80
66524;BME280;53350;52.210;5.160;2024-02-26T09:01:29;100537.84;;;6.39;80.31
66524;BME280;53350;52.210;5.160;2024-02-26T09:03:55;100540.38;;;6.42;80.19
66524;BME280;53350;52.210;5.160;2024-02-26T09:06:22;100534.41;;;6.50;80.10
66524;BME280;53350;52.210;5.160;2024-02-26T09:08:48;100563.41;;;6.50;80.41
66524;BME280;53350;52.210;5.160;2024-02-26T09:11:15;100548.94;;;6.49;80.30
66524;BME280;53350;52.210;5.160;2024-02-26T09:13:43;100560.88;;;6.55;80.03
66524;BME280;53350;52.210;5.160;2024-02-26T09:16:11;100558.31;;;6.56;79.70
66524;BME280;53350;52.210;5.160;2024-02-26T09:18:38;100553.16;;;6.49;79.74
66524;BME280;53350;52.210;5.160;2024-02-26T09:21:04;100560.00;;;6.43;79.99
66524;BME280;53350;52.210;5.160;2024-02-26T09:23:31;100564.28;;;6.44;79.69
66524;BME280;53350;52.210;5.160;2024-02-26T09:25:58;100577.91;;;6.31;79.88
66524;BME280;53350;52.210;5.160;2024-02-26T09:28:24;100571.09;;;6.53;79.80
66524;BME280;53350;52.210;5.160;2024-02-26T09:30:52;100595.81;;;6.33;79.75
66524;BME280;53350;52.210;5.160;2024-02-26T09:33:19;100580.47;;;6.48;79.68
66524;BME280;53350;52.210;5.160;2024-02-26T09:35:46;100578.75;;;6.49;79.42
66524;BME280;53350;52.210;5.160;2024-02-26T09:38:13;100587.31;;;6.52;79.32
66524;BME280;53350;52.210;5.160;2024-02-26T09:40:40;100595.84;;;6.59;78.89
66524;BME280;53350;52.210;5.160;2024-02-26T09:43:07;100610.34;;;6.46;79.63
66524;BME280;53350;52.210;5.160;2024-02-26T09:45:36;100616.28;;;6.43;79.43
66524;BME280;53350;52.210;5.160;2024-02-26T09:48:06;100601.81;;;6.56;79.18
66524;BME280;53350;52.210;5.160;2024-02-26T09:50:34;100607.75;;;6.58;79.15
66524;BME280;53350;52.210;5.160;2024-02-26T09:53:01;100628.25;;;6.58;79.47
66524;BME280;53350;52.210;5.160;2024-02-26T09:55:28;100608.63;;;6.57;79.20
66524;BME280;53350;52.210;5.160;2024-02-26T09:57:55;100618.00;;;6.55;80.17
66524;BME280;53350;52.210;5.160;2024-02-26T10:00:23;100632.50;;;6.61;79.88
66524;BME280;53350;52.210;5.160;2024-02-26T10:02:51;100619.72;;;6.61;79.19
66524;BME280;53350;52.210;5.160;2024-02-26T10:05:21;100622.28;;;6.67;79.45
66524;BME280;53350;52.210;5.160;2024-02-26T10:07:47;100629.13;;;6.62;80.36
66524;BME280;53350;52.210;5.160;2024-02-26T10:10:15;100639.31;;;6.54;80.37
66524;BME280;53350;52.210;5.160;2024-02-26T10:12:41;100644.47;;;6.60;80.10
66524;BME280;53350;52.210;5.160;2024-02-26T10:15:08;100653.00;;;6.63;80.08
66524;BME280;53350;52.210;5.160;2024-02-26T10:17:35;100641.03;;;6.63;80.32
66524;BME280;53350;52.210;5.160;2024-02-26T10:20:13;100639.34;;;6.67;80.58
66524;BME280;53350;52.210;5.160;2024-02-26T10:22:42;100638.47;;;6.65;80.48
66524;BME280;53350;52.210;5.160;2024-02-26T10:25:08;100645.31;;;6.69;80.63
66524;BME280;53350;52.210;5.160;2024-02-26T10:27:35;100661.50;;;6.66;80.91
66524;BME280;53350;52.210;5.160;2024-02-26T10:30:03;100647.88;;;6.64;81.13
66524;BME280;53350;52.210;5.160;2024-02-26T10:32:30;100651.28;;;6.66;81.20
66524;BME280;53350;52.210;5.160;2024-02-26T10:34:56;100662.34;;;6.56;81.31
66524;BME280;53350;52.210;5.160;2024-02-26T10:37:23;100669.22;;;6.74;80.45
66524;BME280;53350;52.210;5.160;2024-02-26T10:39:51;100670.91;;;6.72;80.40
66524;BME280;53350;52.210;5.160;2024-02-26T10:42:18;100672.63;;;6.74;80.87
66524;BME280;53350;52.210;5.160;2024-02-26T10:44:45;100686.25;;;6.66;81.15
66524;BME280;53350;52.210;5.160;2024-02-26T10:47:14;100682.84;;;6.67;81.17
66524;BME280;53350;52.210;5.160;2024-02-26T10:49:45;100678.59;;;6.67;81.46
66524;BME280;53350;52.210;5.160;2024-02-26T10:52:12;100675.19;;;6.73;80.93
66524;BME280;53350;52.210;5.160;2024-02-26T10:54:41;100687.09;;;6.63;81.81
66524;BME280;53350;52.210;5.160;2024-02-26T10:57:11;100709.28;;;6.63;82.08
66524;BME280;53350;52.210;5.160;2024-02-26T10:59:38;100705.88;;;6.76;80.87
66524;BME280;53350;52.210;5.160;2024-02-26T11:02:08;100705.03;;;6.66;82.23
66524;BME280;53350;52.210;5.160;2024-02-26T11:04:36;100711.00;;;6.71;81.77
66524;BME280;53350;52.210;5.160;2024-02-26T11:07:04;100722.09;;;6.63;82.00
66524;BME280;53350;52.210;5.160;2024-02-26T11:09:31;100721.25;;;6.77;82.09
66524;BME280;53350;52.210;5.160;2024-02-26T11:11:59;100716.13;;;6.82;82.23
66524;BME280;53350;52.210;5.160;2024-02-26T11:14:29;100737.47;;;6.81;82.38
66524;BME280;53350;52.210;5.160;2024-02-26T11:16:56;100729.81;;;6.92;81.37
66524;BME280;53350;52.210;5.160;2024-02-26T11:19:24;100732.38;;;6.87;82.41
66524;BME280;53350;52.210;5.160;2024-02-26T11:21:50;100732.38;;;6.95;82.06
66524;BME280;53350;52.210;5.160;2024-02-26T11:24:17;100731.50;;;7.02;81.28
66524;BME280;53350;52.210;5.160;2024-02-26T11:26:46;100740.91;;;7.03;80.74
66524;BME280;53350;52.210;5.160;2024-02-26T11:29:18;100740.91;;;6.92;80.91
66524;BME280;53350;52.210;5.160;2024-02-26T11:31:48;100743.47;;;6.99;80.93
66524;BME280;53350;52.210;5.160;2024-02-26T11:34:17;100750.31;;;7.06;80.38
66524;BME280;53350;52.210;5.160;2024-02-26T11:36:44;100744.34;;;7.14;80.05
66524;BME280;53350;52.210;5.160;2024-02-26T11:39:11;100746.91;;;7.14;79.92
66524;BME280;53350;52.210;5.160;2024-02-26T11:41:40;100747.75;;;7.17;79.63
66524;BME280;53350;52.210;5.160;2024-02-26T11:44:06;100753.72;;;7.12;79.79
66524;BME280;53350;52.210;5.160;2024-02-26T11:46:39;100744.34;;;7.08;80.34
66524;BME280;53350;52.210;5.160;2024-02-26T11:49:32;100750.31;;;7.10;79.85
66524;BME280;53350;52.210;5.160;2024-02-26T11:51:59;100756.31;;;7.20;79.23
66524;BME280;53350;52.210;5.160;2024-02-26T11:54:39;100751.19;;;7.17;79.06
66524;BME280;53350;52.210;5.160;2024-02-26T11:57:20;100753.75;;;7.23;79.16
66524;BME280;53350;52.210;5.160;2024-02-26T11:59:47;100758.84;;;7.28;78.69
66524;BME280;53350;52.210;5.160;2024-02-26T12:02:43;100773.38;;;7.07;78.85
66524;BME280;53350;52.210;5.160;2024-02-26T12:05:13;100767.38;;;7.21;79.25
66524;BME280;53350;52.210;5.160;2024-02-26T12:07:44;100775.06;;;7.28;78.02
66524;BME280;53350;52.210;5.160;2024-02-26T12:10:32;100791.28;;;7.20;78.43
66524;BME280;53350;52.210;5.160;2024-02-26T12:13:07;100778.50;;;7.23;77.89
66524;BME280;53350;52.210;5.160;2024-02-26T12:15:37;100783.63;;;7.34;76.96
66524;BME280;53350;52.210;5.160;2024-02-26T12:18:05;100787.88;;;7.27;77.80
66524;BME280;53350;52.210;5.160;2024-02-26T12:20:33;100783.63;;;7.37;77.20
66524;BME280;53350;52.210;5.160;2024-02-26T12:23:01;100785.34;;;7.38;77.54
66524;BME280;53350;52.210;5.160;2024-02-26T12:25:29;100784.50;;;7.40;77.52
66524;BME280;53350;52.210;5.160;2024-02-26T12:27:57;100789.59;;;7.48;76.53
66524;BME280;53350;52.210;5.160;2024-02-26T12:30:24;100795.56;;;7.44;77.46
66524;BME280;53350;52.210;5.160;2024-02-26T12:32:53;100788.75;;;7.26;77.61
66524;BME280;53350;52.210;5.160;2024-02-26T12:35:22;100802.44;;;7.37;77.31
66524;BME280;53350;52.210;5.160;2024-02-26T12:37:50;100806.69;;;7.44;76.96
66524;BME280;53350;52.210;5.160;2024-02-26T12:40:17;100785.31;;;7.48;76.24
66524;BME280;53350;52.210;5.160;2024-02-26T12:42:45;100801.56;;;7.41;76.62
66524;BME280;53350;52.210;5.160;2024-02-26T12:45:13;100804.97;;;7.43;76.14
66524;BME280;53350;52.210;5.160;2024-02-26T12:47:41;100807.53;;;7.34;77.12
66524;BME280;53350;52.210;5.160;2024-02-26T12:50:09;100805.00;;;7.42;76.39
66524;BME280;53350;52.210;5.160;2024-02-26T12:52:38;100825.47;;;7.34;76.71
66524;BME280;53350;52.210;5.160;2024-02-26T12:55:07;100819.50;;;7.46;76.28
66524;BME280;53350;52.210;5.160;2024-02-26T12:57:36;100841.69;;;7.45;76.36
66524;BME280;53350;52.210;5.160;2024-02-26T13:00:05;100820.34;;;7.49;76.22